sensor_id;sensor_type;location;lat;lon;timestamp;P1;durP1;ratioP1;P2;durP2;ratioP2
22665;SDS011;11499;49.486;11.104;2023-04-06T00:00:55;4.70;;;2.90;;
22665;SDS011;11499;49.486;11.104;2023-04-06T00:03:21;6.33;;;3.10;;
22665;SDS011;11499;49.486;11.104;2023-04-06T00:05:47;3.77;;;3.17;;
22665;SDS011;11499;49.486;11.104;2023-04-06T00:08:13;3.87;;;3.10;;
22665;SDS011;11499;49.486;11.104;2023-04-06T00:10:38;3.43;;;2.87;;
22665;SDS011;11499;49.486;11.104;2023-04-06T00:13:04;4.07;;;3.00;;
22665;SDS011;11499;49.486;11.104;2023-04-06T00:15:30;5.50;;;3.23;;
22665;SDS011;11499;49.486;11.104;2023-04-06T00:17:56;5.03;;;3.40;;
22665;SDS011;11499;49.486;11.104;2023-04-06T00:23:11;6.70;;;2.70;;
22665;SDS011;11499;49.486;11.104;2023-04-06T00:25:36;3.27;;;2.83;;
22665;SDS011;11499;49.486;11.104;2023-04-06T00:28:02;3.33;;;2.73;;
22665;SDS011;11499;49.486;11.104;2023-04-06T00:30:28;5.33;;;2.80;;
22665;SDS011;11499;49.486;11.104;2023-04-06T00:32:54;5.47;;;2.70;;
22665;SDS011;11499;49.486;11.104;2023-04-06T00:35:19;6.60;;;3.30;;
22665;SDS011;11499;49.486;11.104;2023-04-06T00:37:46;6.10;;;4.17;;
22665;SDS011;11499;49.486;11.104;2023-04-06T00:40:13;4.57;;;3.20;;
22665;SDS011;11499;49.486;11.104;2023-04-06T00:42:38;4.20;;;3.23;;
22665;SDS011;11499;49.486;11.104;2023-04-06T00:45:04;4.17;;;2.93;;
22665;SDS011;11499;49.486;11.104;2023-04-06T00:50:12;3.60;;;3.10;;
22665;SDS011;11499;49.486;11.104;2023-04-06T00:52:38;4.80;;;3.10;;
22665;SDS011;11499;49.486;11.104;2023-04-06T00:55:03;6.20;;;2.93;;
22665;SDS011;11499;49.486;11.104;2023-04-06T00:57:30;6.60;;;3.50;;
22665;SDS011;11499;49.486;11.104;2023-04-06T00:59:56;3.70;;;3.10;;
22665;SDS011;11499;49.486;11.104;2023-04-06T01:02:23;4.90;;;2.83;;
22665;SDS011;11499;49.486;11.104;2023-04-06T01:04:49;3.47;;;2.90;;
22665;SDS011;11499;49.486;11.104;2023-04-06T01:07:15;4.80;;;2.80;;
22665;SDS011;11499;49.486;11.104;2023-04-06T01:09:40;4.47;;;3.37;;
22665;SDS011;11499;49.486;11.104;2023-04-06T01:12:06;4.60;;;2.70;;
22665;SDS011;11499;49.486;11.104;2023-04-06T01:18:05;5.23;;;3.20;;
22665;SDS011;11499;49.486;11.104;2023-04-06T01:20:31;3.90;;;3.17;;
22665;SDS011;11499;49.486;11.104;2023-04-06T01:22:57;5.17;;;2.73;;
22665;SDS011;11499;49.486;11.104;2023-04-06T01:25:22;5.37;;;2.67;;
22665;SDS011;11499;49.486;11.104;2023-04-06T01:27:48;3.70;;;2.80;;
22665;SDS011;11499;49.486;11.104;2023-04-06T01:30:13;6.10;;;3.30;;
22665;SDS011;11499;49.486;11.104;2023-04-06T01:32:39;3.23;;;2.80;;
22665;SDS011;11499;49.486;11.104;2023-04-06T01:35:05;3.37;;;2.70;;
22665;SDS011;11499;49.486;11.104;2023-04-06T01:37:30;3.90;;;2.90;;
22665;SDS011;11499;49.486;11.104;2023-04-06T01:39:57;5.80;;;3.17;;
22665;SDS011;11499;49.486;11.104;2023-04-06T01:45:04;7.13;;;3.40;;
22665;SDS011;11499;49.486;11.104;2023-04-06T01:47:30;3.87;;;2.93;;
22665;SDS011;11499;49.486;11.104;2023-04-06T01:49:55;5.00;;;2.87;;
22665;SDS011;11499;49.486;11.104;2023-04-06T01:52:21;5.20;;;3.20;;
22665;SDS011;11499;49.486;11.104;2023-04-06T01:54:47;4.43;;;3.10;;
22665;SDS011;11499;49.486;11.104;2023-04-06T01:57:12;4.57;;;3.10;;
22665;SDS011;11499;49.486;11.104;2023-04-06T01:59:38;5.07;;;3.30;;
22665;SDS011;11499;49.486;11.104;2023-04-06T02:02:03;4.47;;;3.30;;
22665;SDS011;11499;49.486;11.104;2023-04-06T02:04:28;5.07;;;3.20;;
22665;SDS011;11499;49.486;11.104;2023-04-06T02:06:54;4.33;;;3.27;;
22665;SDS011;11499;49.486;11.104;2023-04-06T02:11:42;6.43;;;3.13;;
22665;SDS011;11499;49.486;11.104;2023-04-06T02:14:07;3.73;;;3.30;;
22665;SDS011;11499;49.486;11.104;2023-04-06T02:16:33;4.33;;;3.27;;
22665;SDS011;11499;49.486;11.104;2023-04-06T02:18:58;4.87;;;3.33;;
22665;SDS011;11499;49.486;11.104;2023-04-06T02:21:24;6.00;;;3.43;;
22665;SDS011;11499;49.486;11.104;2023-04-06T02:23:49;4.43;;;3.40;;
22665;SDS011;11499;49.486;11.104;2023-04-06T02:26:15;5.00;;;3.37;;
22665;SDS011;11499;49.486;11.104;2023-04-06T02:28:40;6.77;;;3.83;;
22665;SDS011;11499;49.486;11.104;2023-04-06T02:31:06;4.47;;;3.10;;
22665;SDS011;11499;49.486;11.104;2023-04-06T02:33:32;4.37;;;3.37;;
22665;SDS011;11499;49.486;11.104;2023-04-06T02:35:57;3.63;;;2.97;;
22665;SDS011;11499;49.486;11.104;2023-04-06T02:38:23;4.53;;;3.30;;
22665;SDS011;11499;49.486;11.104;2023-04-06T02:43:35;5.37;;;3.20;;
22665;SDS011;11499;49.486;11.104;2023-04-06T02:46:00;4.60;;;3.23;;
22665;SDS011;11499;49.486;11.104;2023-04-06T02:48:26;5.50;;;3.33;;
22665;SDS011;11499;49.486;11.104;2023-04-06T02:50:51;3.60;;;2.90;;
22665;SDS011;11499;49.486;11.104;2023-04-06T02:53:17;3.53;;;3.10;;
22665;SDS011;11499;49.486;11.104;2023-04-06T02:55:42;4.03;;;3.20;;
22665;SDS011;11499;49.486;11.104;2023-04-06T02:58:08;6.37;;;3.50;;
22665;SDS011;11499;49.486;11.104;2023-04-06T03:00:33;4.23;;;2.90;;
22665;SDS011;11499;49.486;11.104;2023-04-06T03:02:59;3.97;;;3.13;;
22665;SDS011;11499;49.486;11.104;2023-04-06T03:05:24;3.97;;;2.90;;
22665;SDS011;11499;49.486;11.104;2023-04-06T03:10:20;4.03;;;3.10;;
22665;SDS011;11499;49.486;11.104;2023-04-06T03:12:45;4.27;;;3.00;;
22665;SDS011;11499;49.486;11.104;2023-04-06T03:15:11;3.27;;;2.40;;
22665;SDS011;11499;49.486;11.104;2023-04-06T03:17:36;3.27;;;2.70;;
22665;SDS011;11499;49.486;11.104;2023-04-06T03:20:02;4.50;;;3.40;;
22665;SDS011;11499;49.486;11.104;2023-04-06T03:22:28;6.13;;;3.13;;
22665;SDS011;11499;49.486;11.104;2023-04-06T03:24:54;4.00;;;3.60;;
22665;SDS011;11499;49.486;11.104;2023-04-06T03:27:19;4.73;;;3.50;;
22665;SDS011;11499;49.486;11.104;2023-04-06T03:29:45;3.90;;;2.80;;
22665;SDS011;11499;49.486;11.104;2023-04-06T03:32:10;4.77;;;3.27;;
22665;SDS011;11499;49.486;11.104;2023-04-06T03:37:18;4.17;;;2.90;;
22665;SDS011;11499;49.486;11.104;2023-04-06T03:39:43;4.90;;;2.97;;
22665;SDS011;11499;49.486;11.104;2023-04-06T03:42:09;4.83;;;3.10;;
22665;SDS011;11499;49.486;11.104;2023-04-06T03:44:34;4.37;;;2.90;;
22665;SDS011;11499;49.486;11.104;2023-04-06T03:47:00;3.23;;;2.70;;
22665;SDS011;11499;49.486;11.104;2023-04-06T03:49:27;3.53;;;3.07;;
22665;SDS011;11499;49.486;11.104;2023-04-06T03:51:52;3.40;;;2.73;;
22665;SDS011;11499;49.486;11.104;2023-04-06T03:54:18;5.23;;;3.30;;
22665;SDS011;11499;49.486;11.104;2023-04-06T03:56:43;6.07;;;3.13;;
22665;SDS011;11499;49.486;11.104;2023-04-06T03:59:09;3.90;;;2.97;;
22665;SDS011;11499;49.486;11.104;2023-04-06T04:01:34;4.30;;;3.20;;
22665;SDS011;11499;49.486;11.104;2023-04-06T04:06:42;4.60;;;3.10;;
22665;SDS011;11499;49.486;11.104;2023-04-06T04:09:07;3.60;;;3.03;;
22665;SDS011;11499;49.486;11.104;2023-04-06T04:11:33;4.80;;;2.90;;
22665;SDS011;11499;49.486;11.104;2023-04-06T04:13:58;3.70;;;3.00;;
22665;SDS011;11499;49.486;11.104;2023-04-06T04:16:24;3.57;;;2.90;;
22665;SDS011;11499;49.486;11.104;2023-04-06T04:18:49;4.70;;;3.30;;
22665;SDS011;11499;49.486;11.104;2023-04-06T04:21:15;3.47;;;3.07;;
22665;SDS011;11499;49.486;11.104;2023-04-06T04:23:40;5.67;;;3.03;;
22665;SDS011;11499;49.486;11.104;2023-04-06T04:26:06;3.43;;;2.73;;
22665;SDS011;11499;49.486;11.104;2023-04-06T04:28:31;5.50;;;3.50;;
22665;SDS011;11499;49.486;11.104;2023-04-06T04:33:10;4.43;;;2.90;;
22665;SDS011;11499;49.486;11.104;2023-04-06T04:35:35;3.97;;;3.20;;
22665;SDS011;11499;49.486;11.104;2023-04-06T04:38:01;4.43;;;3.50;;
22665;SDS011;11499;49.486;11.104;2023-04-06T04:40:26;3.73;;;3.27;;
22665;SDS011;11499;49.486;11.104;2023-04-06T04:42:52;4.03;;;3.00;;
22665;SDS011;11499;49.486;11.104;2023-04-06T04:45:17;3.67;;;3.00;;
22665;SDS011;11499;49.486;11.104;2023-04-06T04:47:43;3.23;;;2.90;;
22665;SDS011;11499;49.486;11.104;2023-04-06T04:50:08;4.73;;;3.13;;
22665;SDS011;11499;49.486;11.104;2023-04-06T04:52:34;4.00;;;3.13;;
22665;SDS011;11499;49.486;11.104;2023-04-06T04:55:00;4.30;;;3.13;;
22665;SDS011;11499;49.486;11.104;2023-04-06T05:00:06;3.33;;;3.00;;
22665;SDS011;11499;49.486;11.104;2023-04-06T05:02:32;4.47;;;3.20;;
22665;SDS011;11499;49.486;11.104;2023-04-06T05:04:58;4.00;;;3.03;;
22665;SDS011;11499;49.486;11.104;2023-04-06T05:07:23;4.73;;;3.40;;
22665;SDS011;11499;49.486;11.104;2023-04-06T05:09:49;4.83;;;3.37;;
22665;SDS011;11499;49.486;11.104;2023-04-06T05:12:14;3.20;;;2.90;;
22665;SDS011;11499;49.486;11.104;2023-04-06T05:14:40;7.60;;;3.50;;
22665;SDS011;11499;49.486;11.104;2023-04-06T05:17:06;3.83;;;3.47;;
22665;SDS011;11499;49.486;11.104;2023-04-06T05:19:32;4.03;;;2.97;;
22665;SDS011;11499;49.486;11.104;2023-04-06T05:21:57;5.20;;;3.20;;
22665;SDS011;11499;49.486;11.104;2023-04-06T05:25:43;11.20;;;6.47;;
22665;SDS011;11499;49.486;11.104;2023-04-06T05:28:09;6.13;;;4.47;;
22665;SDS011;11499;49.486;11.104;2023-04-06T05:30:35;4.27;;;3.33;;
22665;SDS011;11499;49.486;11.104;2023-04-06T05:33:00;4.93;;;3.37;;
22665;SDS011;11499;49.486;11.104;2023-04-06T05:35:26;3.17;;;2.77;;
22665;SDS011;11499;49.486;11.104;2023-04-06T05:37:52;4.27;;;3.20;;
22665;SDS011;11499;49.486;11.104;2023-04-06T05:40:17;3.87;;;3.20;;
22665;SDS011;11499;49.486;11.104;2023-04-06T05:42:43;3.10;;;2.80;;
22665;SDS011;11499;49.486;11.104;2023-04-06T05:45:09;3.83;;;2.80;;
22665;SDS011;11499;49.486;11.104;2023-04-06T05:47:36;5.10;;;3.00;;
22665;SDS011;11499;49.486;11.104;2023-04-06T05:52:51;5.73;;;3.47;;
22665;SDS011;11499;49.486;11.104;2023-04-06T05:55:16;4.67;;;3.17;;
22665;SDS011;11499;49.486;11.104;2023-04-06T05:57:42;5.40;;;2.90;;
22665;SDS011;11499;49.486;11.104;2023-04-06T06:00:08;7.43;;;2.90;;
22665;SDS011;11499;49.486;11.104;2023-04-06T06:02:34;3.90;;;3.00;;
22665;SDS011;11499;49.486;11.104;2023-04-06T06:05:00;5.53;;;3.57;;
22665;SDS011;11499;49.486;11.104;2023-04-06T06:07:26;5.70;;;3.03;;
22665;SDS011;11499;49.486;11.104;2023-04-06T06:09:51;6.07;;;4.03;;
22665;SDS011;11499;49.486;11.104;2023-04-06T06:12:17;4.50;;;3.30;;
22665;SDS011;11499;49.486;11.104;2023-04-06T06:14:42;4.00;;;2.90;;
22665;SDS011;11499;49.486;11.104;2023-04-06T06:19:07;5.90;;;3.73;;
22665;SDS011;11499;49.486;11.104;2023-04-06T06:21:32;3.87;;;3.10;;
22665;SDS011;11499;49.486;11.104;2023-04-06T06:23:58;4.50;;;3.00;;
22665;SDS011;11499;49.486;11.104;2023-04-06T06:26:23;4.40;;;3.10;;
22665;SDS011;11499;49.486;11.104;2023-04-06T06:28:49;3.70;;;3.10;;
22665;SDS011;11499;49.486;11.104;2023-04-06T06:31:15;3.70;;;2.73;;
22665;SDS011;11499;49.486;11.104;2023-04-06T06:33:41;3.30;;;2.57;;
22665;SDS011;11499;49.486;11.104;2023-04-06T06:36:06;3.43;;;3.00;;
22665;SDS011;11499;49.486;11.104;2023-04-06T06:38:32;3.73;;;3.10;;
22665;SDS011;11499;49.486;11.104;2023-04-06T06:40:57;3.53;;;2.87;;
22665;SDS011;11499;49.486;11.104;2023-04-06T06:46:03;5.27;;;3.67;;
22665;SDS011;11499;49.486;11.104;2023-04-06T06:48:28;4.30;;;3.90;;
22665;SDS011;11499;49.486;11.104;2023-04-06T06:50:54;4.50;;;3.10;;
22665;SDS011;11499;49.486;11.104;2023-04-06T06:53:20;4.90;;;3.10;;
22665;SDS011;11499;49.486;11.104;2023-04-06T06:55:45;5.93;;;3.40;;
22665;SDS011;11499;49.486;11.104;2023-04-06T06:58:11;5.27;;;3.73;;
22665;SDS011;11499;49.486;11.104;2023-04-06T07:00:37;4.90;;;3.57;;
22665;SDS011;11499;49.486;11.104;2023-04-06T07:03:02;4.03;;;3.43;;
22665;SDS011;11499;49.486;11.104;2023-04-06T07:05:28;5.73;;;3.40;;
22665;SDS011;11499;49.486;11.104;2023-04-06T07:07:54;5.97;;;3.80;;
22665;SDS011;11499;49.486;11.104;2023-04-06T07:10:20;5.47;;;3.60;;
22665;SDS011;11499;49.486;11.104;2023-04-06T07:15:54;5.10;;;3.67;;
22665;SDS011;11499;49.486;11.104;2023-04-06T07:18:19;5.53;;;4.20;;
22665;SDS011;11499;49.486;11.104;2023-04-06T07:20:45;4.17;;;3.77;;
22665;SDS011;11499;49.486;11.104;2023-04-06T07:23:11;7.07;;;3.43;;
22665;SDS011;11499;49.486;11.104;2023-04-06T07:25:36;8.00;;;3.73;;
22665;SDS011;11499;49.486;11.104;2023-04-06T07:28:02;7.50;;;3.80;;
22665;SDS011;11499;49.486;11.104;2023-04-06T07:30:28;5.10;;;3.60;;
22665;SDS011;11499;49.486;11.104;2023-04-06T07:32:54;5.90;;;3.83;;
22665;SDS011;11499;49.486;11.104;2023-04-06T07:35:24;5.03;;;3.80;;
22665;SDS011;11499;49.486;11.104;2023-04-06T07:37:51;6.03;;;4.10;;
22665;SDS011;11499;49.486;11.104;2023-04-06T07:42:57;7.50;;;4.60;;
22665;SDS011;11499;49.486;11.104;2023-04-06T07:45:22;7.10;;;5.30;;
22665;SDS011;11499;49.486;11.104;2023-04-06T07:47:48;6.53;;;4.50;;
22665;SDS011;11499;49.486;11.104;2023-04-06T07:50:14;6.70;;;4.40;;
22665;SDS011;11499;49.486;11.104;2023-04-06T07:52:40;4.57;;;4.00;;
22665;SDS011;11499;49.486;11.104;2023-04-06T07:55:06;5.60;;;4.50;;
22665;SDS011;11499;49.486;11.104;2023-04-06T07:57:32;4.77;;;4.10;;
22665;SDS011;11499;49.486;11.104;2023-04-06T07:59:57;8.97;;;4.73;;
22665;SDS011;11499;49.486;11.104;2023-04-06T08:02:23;7.43;;;4.43;;
22665;SDS011;11499;49.486;11.104;2023-04-06T08:04:48;6.37;;;5.17;;
22665;SDS011;11499;49.486;11.104;2023-04-06T08:09:56;5.70;;;4.80;;
22665;SDS011;11499;49.486;11.104;2023-04-06T08:12:22;7.30;;;5.20;;
22665;SDS011;11499;49.486;11.104;2023-04-06T08:14:47;7.57;;;4.83;;
22665;SDS011;11499;49.486;11.104;2023-04-06T08:17:13;7.03;;;4.70;;
22665;SDS011;11499;49.486;11.104;2023-04-06T08:19:39;6.47;;;4.67;;
22665;SDS011;11499;49.486;11.104;2023-04-06T08:22:06;7.15;;;5.15;;
22665;SDS011;11499;49.486;11.104;2023-04-06T08:24:32;6.00;;;4.93;;
22665;SDS011;11499;49.486;11.104;2023-04-06T08:26:58;7.23;;;5.10;;
22665;SDS011;11499;49.486;11.104;2023-04-06T08:29:24;8.03;;;4.93;;
22665;SDS011;11499;49.486;11.104;2023-04-06T08:31:49;6.03;;;4.70;;
22665;SDS011;11499;49.486;11.104;2023-04-06T08:36:12;6.10;;;4.57;;
22665;SDS011;11499;49.486;11.104;2023-04-06T08:38:39;5.93;;;5.28;;
22665;SDS011;11499;49.486;11.104;2023-04-06T08:41:08;5.77;;;5.17;;
22665;SDS011;11499;49.486;11.104;2023-04-06T08:43:42;5.87;;;4.87;;
22665;SDS011;11499;49.486;11.104;2023-04-06T08:46:11;6.15;;;5.30;;
22665;SDS011;11499;49.486;11.104;2023-04-06T08:48:38;6.83;;;5.23;;
22665;SDS011;11499;49.486;11.104;2023-04-06T08:51:05;6.57;;;5.85;;
22665;SDS011;11499;49.486;11.104;2023-04-06T08:53:31;6.93;;;5.20;;
22665;SDS011;11499;49.486;11.104;2023-04-06T08:55:56;5.70;;;5.20;;
22665;SDS011;11499;49.486;11.104;2023-04-06T08:58:23;6.22;;;5.53;;
22665;SDS011;11499;49.486;11.104;2023-04-06T09:02:42;6.23;;;4.80;;
22665;SDS011;11499;49.486;11.104;2023-04-06T09:05:10;6.53;;;5.20;;
22665;SDS011;11499;49.486;11.104;2023-04-06T09:07:36;5.57;;;5.00;;
22665;SDS011;11499;49.486;11.104;2023-04-06T09:10:02;6.20;;;5.23;;
22665;SDS011;11499;49.486;11.104;2023-04-06T09:12:32;5.60;;;4.70;;
22665;SDS011;11499;49.486;11.104;2023-04-06T09:14:58;6.33;;;4.70;;
22665;SDS011;11499;49.486;11.104;2023-04-06T09:17:26;6.67;;;4.80;;
22665;SDS011;11499;49.486;11.104;2023-04-06T09:19:53;5.73;;;4.70;;
22665;SDS011;11499;49.486;11.104;2023-04-06T09:22:19;7.23;;;4.57;;
22665;SDS011;11499;49.486;11.104;2023-04-06T09:24:46;6.87;;;5.27;;
22665;SDS011;11499;49.486;11.104;2023-04-06T09:28:45;8.93;;;5.27;;
22665;SDS011;11499;49.486;11.104;2023-04-06T09:31:16;6.73;;;4.73;;
22665;SDS011;11499;49.486;11.104;2023-04-06T09:33:46;6.77;;;5.17;;
22665;SDS011;11499;49.486;11.104;2023-04-06T09:36:12;6.43;;;5.30;;
22665;SDS011;11499;49.486;11.104;2023-04-06T09:38:51;7.30;;;5.00;;
22665;SDS011;11499;49.486;11.104;2023-04-06T09:41:25;5.43;;;4.93;;
22665;SDS011;11499;49.486;11.104;2023-04-06T09:44:08;6.77;;;5.17;;
22665;SDS011;11499;49.486;11.104;2023-04-06T09:46:35;6.03;;;4.83;;
22665;SDS011;11499;49.486;11.104;2023-04-06T09:49:02;6.00;;;4.97;;
22665;SDS011;11499;49.486;11.104;2023-04-06T09:51:30;9.87;;;5.90;;
22665;SDS011;11499;49.486;11.104;2023-04-06T09:56:17;6.97;;;5.47;;
22665;SDS011;11499;49.486;11.104;2023-04-06T09:58:48;7.10;;;5.47;;
22665;SDS011;11499;49.486;11.104;2023-04-06T10:01:18;6.27;;;4.80;;
22665;SDS011;11499;49.486;11.104;2023-04-06T10:06:17;7.23;;;4.83;;
22665;SDS011;11499;49.486;11.104;2023-04-06T10:08:47;6.47;;;5.70;;
22665;SDS011;11499;49.486;11.104;2023-04-06T10:11:14;9.33;;;5.80;;
22665;SDS011;11499;49.486;11.104;2023-04-06T10:13:41;6.73;;;5.70;;
22665;SDS011;11499;49.486;11.104;2023-04-06T10:16:07;7.47;;;5.80;;
22665;SDS011;11499;49.486;11.104;2023-04-06T10:18:33;6.17;;;5.60;;
22665;SDS011;11499;49.486;11.104;2023-04-06T10:23:45;6.57;;;5.40;;
22665;SDS011;11499;49.486;11.104;2023-04-06T10:26:14;6.53;;;5.50;;
22665;SDS011;11499;49.486;11.104;2023-04-06T10:28:42;6.37;;;5.73;;
22665;SDS011;11499;49.486;11.104;2023-04-06T10:31:09;7.40;;;5.47;;
22665;SDS011;11499;49.486;11.104;2023-04-06T10:33:34;6.57;;;5.67;;
22665;SDS011;11499;49.486;11.104;2023-04-06T10:36:10;7.93;;;5.83;;
22665;SDS011;11499;49.486;11.104;2023-04-06T10:38:40;6.43;;;5.77;;
22665;SDS011;11499;49.486;11.104;2023-04-06T10:41:07;6.27;;;5.70;;
22665;SDS011;11499;49.486;11.104;2023-04-06T10:43:35;6.10;;;5.50;;
22665;SDS011;11499;49.486;11.104;2023-04-06T10:49:58;7.37;;;6.00;;
22665;SDS011;11499;49.486;11.104;2023-04-06T10:52:23;8.37;;;5.57;;
22665;SDS011;11499;49.486;11.104;2023-04-06T10:54:49;6.67;;;5.47;;
22665;SDS011;11499;49.486;11.104;2023-04-06T10:57:15;6.20;;;5.60;;
22665;SDS011;11499;49.486;11.104;2023-04-06T10:59:41;6.00;;;5.07;;
22665;SDS011;11499;49.486;11.104;2023-04-06T11:02:08;6.23;;;5.50;;
22665;SDS011;11499;49.486;11.104;2023-04-06T11:04:33;5.43;;;4.93;;
22665;SDS011;11499;49.486;11.104;2023-04-06T11:06:59;6.97;;;5.82;;
22665;SDS011;11499;49.486;11.104;2023-04-06T11:09:25;5.57;;;5.07;;
22665;SDS011;11499;49.486;11.104;2023-04-06T11:11:52;6.33;;;5.50;;
22665;SDS011;11499;49.486;11.104;2023-04-06T11:16:54;6.80;;;5.63;;
22665;SDS011;11499;49.486;11.104;2023-04-06T11:19:20;6.10;;;4.97;;
22665;SDS011;11499;49.486;11.104;2023-04-06T11:21:47;7.97;;;5.40;;
22665;SDS011;11499;49.486;11.104;2023-04-06T11:24:14;6.55;;;5.68;;
22665;SDS011;11499;49.486;11.104;2023-04-06T11:26:42;6.13;;;5.53;;
22665;SDS011;11499;49.486;11.104;2023-04-06T11:29:14;5.77;;;5.17;;
22665;SDS011;11499;49.486;11.104;2023-04-06T11:31:47;8.63;;;6.00;;
22665;SDS011;11499;49.486;11.104;2023-04-06T11:34:18;7.33;;;5.37;;
22665;SDS011;11499;49.486;11.104;2023-04-06T11:36:46;6.10;;;5.17;;
22665;SDS011;11499;49.486;11.104;2023-04-06T11:39:13;7.67;;;5.60;;
22665;SDS011;11499;49.486;11.104;2023-04-06T11:43:38;7.63;;;5.77;;
22665;SDS011;11499;49.486;11.104;2023-04-06T11:46:10;6.43;;;5.60;;
22665;SDS011;11499;49.486;11.104;2023-04-06T11:48:44;7.43;;;6.03;;
22665;SDS011;11499;49.486;11.104;2023-04-06T11:51:11;6.07;;;5.40;;
22665;SDS011;11499;49.486;11.104;2023-04-06T11:53:45;5.83;;;5.03;;
22665;SDS011;11499;49.486;11.104;2023-04-06T11:56:11;5.47;;;4.70;;
22665;SDS011;11499;49.486;11.104;2023-04-06T11:58:47;10.40;;;4.93;;
22665;SDS011;11499;49.486;11.104;2023-04-06T12:01:12;5.60;;;4.90;;
22665;SDS011;11499;49.486;11.104;2023-04-06T12:03:38;6.10;;;5.47;;
22665;SDS011;11499;49.486;11.104;2023-04-06T12:06:03;6.40;;;5.17;;
22665;SDS011;11499;49.486;11.104;2023-04-06T12:11:15;6.47;;;5.13;;
22665;SDS011;11499;49.486;11.104;2023-04-06T12:13:41;7.67;;;5.40;;
22665;SDS011;11499;49.486;11.104;2023-04-06T12:16:06;6.17;;;5.20;;
22665;SDS011;11499;49.486;11.104;2023-04-06T12:18:32;5.57;;;4.97;;
22665;SDS011;11499;49.486;11.104;2023-04-06T12:20:57;7.20;;;5.50;;
22665;SDS011;11499;49.486;11.104;2023-04-06T12:23:23;6.40;;;5.10;;
22665;SDS011;11499;49.486;11.104;2023-04-06T12:25:48;5.40;;;4.43;;
22665;SDS011;11499;49.486;11.104;2023-04-06T12:28:14;5.07;;;4.57;;
22665;SDS011;11499;49.486;11.104;2023-04-06T12:30:40;5.17;;;4.50;;
22665;SDS011;11499;49.486;11.104;2023-04-06T12:33:06;6.23;;;4.40;;
22665;SDS011;11499;49.486;11.104;2023-04-06T12:35:34;5.07;;;4.57;;
22665;SDS011;11499;49.486;11.104;2023-04-06T12:40:42;5.20;;;4.53;;
22665;SDS011;11499;49.486;11.104;2023-04-06T12:43:07;6.03;;;4.77;;
22665;SDS011;11499;49.486;11.104;2023-04-06T12:45:33;5.40;;;4.30;;
22665;SDS011;11499;49.486;11.104;2023-04-06T12:47:59;4.90;;;4.40;;
22665;SDS011;11499;49.486;11.104;2023-04-06T12:50:25;4.97;;;4.47;;
22665;SDS011;11499;49.486;11.104;2023-04-06T12:52:51;4.97;;;4.47;;
22665;SDS011;11499;49.486;11.104;2023-04-06T12:55:17;5.20;;;4.17;;
22665;SDS011;11499;49.486;11.104;2023-04-06T12:57:42;6.13;;;5.20;;
22665;SDS011;11499;49.486;11.104;2023-04-06T13:00:08;5.43;;;4.80;;
22665;SDS011;11499;49.486;11.104;2023-04-06T13:03:59;7.57;;;5.50;;
22665;SDS011;11499;49.486;11.104;2023-04-06T13:06:25;7.13;;;5.23;;
22665;SDS011;11499;49.486;11.104;2023-04-06T13:08:54;6.90;;;5.30;;
22665;SDS011;11499;49.486;11.104;2023-04-06T13:11:20;5.47;;;4.53;;
22665;SDS011;11499;49.486;11.104;2023-04-06T13:13:46;5.83;;;4.87;;
22665;SDS011;11499;49.486;11.104;2023-04-06T13:16:12;5.72;;;5.20;;
22665;SDS011;11499;49.486;11.104;2023-04-06T13:18:38;8.20;;;5.57;;
22665;SDS011;11499;49.486;11.104;2023-04-06T13:21:04;5.37;;;4.73;;
22665;SDS011;11499;49.486;11.104;2023-04-06T13:23:30;7.20;;;5.20;;
22665;SDS011;11499;49.486;11.104;2023-04-06T13:28:03;5.50;;;4.97;;
22665;SDS011;11499;49.486;11.104;2023-04-06T13:30:29;5.30;;;4.80;;
22665;SDS011;11499;49.486;11.104;2023-04-06T13:32:54;5.37;;;4.87;;
22665;SDS011;11499;49.486;11.104;2023-04-06T13:35:20;5.33;;;4.83;;
22665;SDS011;11499;49.486;11.104;2023-04-06T13:37:46;7.23;;;5.40;;
22665;SDS011;11499;49.486;11.104;2023-04-06T13:40:11;6.00;;;5.40;;
22665;SDS011;11499;49.486;11.104;2023-04-06T13:42:37;5.80;;;5.20;;
22665;SDS011;11499;49.486;11.104;2023-04-06T13:45:06;6.30;;;5.40;;
22665;SDS011;11499;49.486;11.104;2023-04-06T13:47:32;5.10;;;4.43;;
22665;SDS011;11499;49.486;11.104;2023-04-06T13:52:48;5.40;;;4.70;;
22665;SDS011;11499;49.486;11.104;2023-04-06T13:55:14;5.50;;;4.97;;
22665;SDS011;11499;49.486;11.104;2023-04-06T13:57:40;5.30;;;4.80;;
22665;SDS011;11499;49.486;11.104;2023-04-06T14:00:06;5.93;;;5.33;;
22665;SDS011;11499;49.486;11.104;2023-04-06T14:02:33;7.30;;;5.23;;
22665;SDS011;11499;49.486;11.104;2023-04-06T14:04:59;6.17;;;5.57;;
22665;SDS011;11499;49.486;11.104;2023-04-06T14:07:25;5.30;;;4.80;;
22665;SDS011;11499;49.486;11.104;2023-04-06T14:09:51;6.27;;;5.67;;
22665;SDS011;11499;49.486;11.104;2023-04-06T14:12:16;6.10;;;5.50;;
22665;SDS011;11499;49.486;11.104;2023-04-06T14:14:41;6.13;;;5.10;;
22665;SDS011;11499;49.486;11.104;2023-04-06T14:20:09;6.17;;;5.40;;
22665;SDS011;11499;49.486;11.104;2023-04-06T14:22:39;6.10;;;5.40;;
22665;SDS011;11499;49.486;11.104;2023-04-06T14:25:06;5.73;;;5.23;;
22665;SDS011;11499;49.486;11.104;2023-04-06T14:27:32;5.57;;;4.97;;
22665;SDS011;11499;49.486;11.104;2023-04-06T14:29:58;6.07;;;5.47;;
22665;SDS011;11499;49.486;11.104;2023-04-06T14:32:23;7.67;;;5.00;;
22665;SDS011;11499;49.486;11.104;2023-04-06T14:34:49;5.80;;;5.20;;
22665;SDS011;11499;49.486;11.104;2023-04-06T14:37:15;5.90;;;5.30;;
22665;SDS011;11499;49.486;11.104;2023-04-06T14:40:52;5.77;;;5.27;;
22665;SDS011;11499;49.486;11.104;2023-04-06T14:43:18;6.10;;;5.53;;
22665;SDS011;11499;49.486;11.104;2023-04-06T14:45:44;6.17;;;5.57;;
22665;SDS011;11499;49.486;11.104;2023-04-06T14:48:10;6.13;;;5.37;;
22665;SDS011;11499;49.486;11.104;2023-04-06T14:50:37;5.90;;;5.30;;
22665;SDS011;11499;49.486;11.104;2023-04-06T14:53:03;9.57;;;5.67;;
22665;SDS011;11499;49.486;11.104;2023-04-06T14:55:29;5.80;;;5.17;;
22665;SDS011;11499;49.486;11.104;2023-04-06T14:57:55;6.43;;;5.47;;
22665;SDS011;11499;49.486;11.104;2023-04-06T15:00:21;5.77;;;5.10;;
22665;SDS011;11499;49.486;11.104;2023-04-06T15:05:23;7.00;;;5.50;;
22665;SDS011;11499;49.486;11.104;2023-04-06T15:07:48;7.30;;;5.40;;
22665;SDS011;11499;49.486;11.104;2023-04-06T15:10:14;6.57;;;5.27;;
22665;SDS011;11499;49.486;11.104;2023-04-06T15:12:40;6.07;;;5.10;;
22665;SDS011;11499;49.486;11.104;2023-04-06T15:15:05;5.83;;;5.23;;
22665;SDS011;11499;49.486;11.104;2023-04-06T15:17:31;6.77;;;5.57;;
22665;SDS011;11499;49.486;11.104;2023-04-06T15:19:57;7.53;;;5.50;;
22665;SDS011;11499;49.486;11.104;2023-04-06T15:22:22;5.77;;;5.23;;
22665;SDS011;11499;49.486;11.104;2023-04-06T15:24:48;6.33;;;5.73;;
22665;SDS011;11499;49.486;11.104;2023-04-06T15:27:13;7.30;;;5.70;;
22665;SDS011;11499;49.486;11.104;2023-04-06T15:31:17;5.60;;;5.10;;
22665;SDS011;11499;49.486;11.104;2023-04-06T15:33:45;5.93;;;5.20;;
22665;SDS011;11499;49.486;11.104;2023-04-06T15:36:16;5.90;;;5.30;;
22665;SDS011;11499;49.486;11.104;2023-04-06T15:38:51;6.73;;;5.40;;
22665;SDS011;11499;49.486;11.104;2023-04-06T15:41:17;6.60;;;5.23;;
22665;SDS011;11499;49.486;11.104;2023-04-06T15:43:43;7.23;;;5.70;;
22665;SDS011;11499;49.486;11.104;2023-04-06T15:46:08;6.10;;;5.40;;
22665;SDS011;11499;49.486;11.104;2023-04-06T15:48:34;6.47;;;5.13;;
22665;SDS011;11499;49.486;11.104;2023-04-06T15:51:00;6.27;;;5.50;;
22665;SDS011;11499;49.486;11.104;2023-04-06T15:53:26;6.23;;;5.63;;
22665;SDS011;11499;49.486;11.104;2023-04-06T15:57:54;7.83;;;5.63;;